Window Rock, Arizona
Current Conditions -  °F | °C
As of 5:53 PM on Saturday 22 Nov 2014 (Local Time) from KGUP Reporting Station
Clear Clear  
Wind Chill: 44°   Ceiling: Unl
Heat Index: 44°   Visibility: 10mi
Dew Point: 14°   Wind: 0mph
Humidity: 30%   Direction: NA
Pressure: 29.98"   Gusts: NA
Location:  35.67°N, 109.07°W
Report Text: KGUP 230053Z AUTO 00000KT 10SM CLR 07/M10 A2998 RMK AO2 SLP177 T00671100
Loading
Personal Weather Stations






























Interactive Weather Map New forecast layout! Learn more

10-Day Weather Forecast

Advertisements
Track Severe Weather on mobile